createdAt,value
2023-03-23T00:02:02.284Z,13.90
2023-03-23T00:04:32.902Z,13.90
2023-03-23T00:07:05.882Z,13.90
2023-03-23T00:09:35.770Z,13.90
2023-03-23T00:12:07.278Z,13.90
2023-03-23T00:14:42.368Z,13.90
2023-03-23T00:17:15.455Z,14.00
2023-03-23T00:19:49.396Z,13.90
2023-03-23T00:22:22.241Z,14.00
2023-03-23T00:24:52.801Z,14.00
2023-03-23T00:27:23.684Z,14.10
2023-03-23T00:29:54.876Z,14.10
2023-03-23T00:32:29.724Z,14.10
2023-03-23T00:35:02.497Z,14.10
2023-03-23T00:37:36.556Z,14.20
2023-03-23T00:40:11.652Z,14.20
2023-03-23T00:42:42.034Z,14.20
2023-03-23T00:45:13.984Z,14.20
2023-03-23T00:47:47.819Z,14.20
2023-03-23T00:50:22.269Z,14.20
2023-03-23T00:52:59.645Z,14.30
2023-03-23T00:55:31.572Z,14.30
2023-03-23T00:58:01.585Z,14.20
2023-03-23T01:00:31.612Z,14.20
2023-03-23T01:03:01.511Z,14.20
2023-03-23T01:05:32.867Z,14.20
2023-03-23T01:08:06.576Z,14.20
2023-03-23T01:10:39.843Z,14.10
2023-03-23T01:13:11.023Z,14.10
2023-03-23T01:15:41.000Z,14.20
2023-03-23T01:18:11.530Z,14.20
2023-03-23T01:20:43.324Z,14.20
2023-03-23T01:23:15.780Z,14.30
2023-03-23T01:25:46.358Z,14.30
2023-03-23T01:28:16.634Z,14.30
2023-03-23T01:30:46.776Z,14.20
2023-03-23T01:33:17.010Z,14.20
2023-03-23T01:35:46.962Z,14.20
2023-03-23T01:38:19.452Z,14.20
2023-03-23T01:40:49.325Z,14.20
2023-03-23T01:43:19.653Z,14.10
2023-03-23T01:45:49.709Z,14.10
2023-03-23T01:48:23.158Z,14.10
2023-03-23T01:51:00.913Z,14.00
2023-03-23T01:53:38.848Z,14.10
2023-03-23T01:56:12.764Z,14.00
2023-03-23T01:58:43.902Z,14.00
2023-03-23T02:01:16.952Z,14.00
2023-03-23T02:03:49.522Z,14.00
2023-03-23T02:06:19.561Z,14.00
2023-03-23T02:08:53.808Z,14.00
2023-03-23T02:11:25.721Z,13.90
2023-03-23T02:13:55.701Z,13.90
2023-03-23T02:16:33.842Z,13.80
2023-03-23T02:19:21.273Z,14.00
2023-03-23T02:22:22.718Z,13.90
2023-03-23T02:25:08.117Z,13.80
2023-03-23T02:28:03.818Z,13.70
2023-03-23T02:30:47.168Z,13.60
2023-03-23T02:33:43.865Z,13.60
2023-03-23T02:36:21.998Z,13.50
2023-03-23T02:39:01.426Z,13.50
2023-03-23T02:41:35.141Z,13.40
2023-03-23T02:44:07.159Z,13.40
2023-03-23T02:46:39.345Z,13.40
2023-03-23T02:49:15.293Z,13.30
2023-03-23T02:51:48.760Z,13.30
2023-03-23T02:54:21.210Z,13.30
2023-03-23T02:56:52.477Z,13.40
2023-03-23T02:59:22.489Z,13.50
2023-03-23T03:02:04.293Z,13.60
2023-03-23T03:04:41.573Z,13.50
2023-03-23T03:07:39.845Z,13.50
2023-03-23T03:10:20.104Z,13.40
2023-03-23T03:12:56.896Z,13.40
2023-03-23T03:15:33.411Z,13.40
2023-03-23T03:18:12.357Z,13.40
2023-03-23T03:20:47.660Z,13.40
2023-03-23T03:23:19.346Z,13.40
2023-03-23T03:25:51.038Z,13.40
2023-03-23T03:28:22.596Z,13.40
2023-03-23T03:30:55.695Z,13.40
2023-03-23T03:33:26.739Z,13.30
2023-03-23T03:36:01.369Z,13.30
2023-03-23T03:38:31.313Z,13.30
2023-03-23T03:41:01.439Z,13.30
2023-03-23T03:43:31.442Z,13.30
2023-03-23T03:46:01.255Z,13.30
2023-03-23T03:48:31.673Z,13.30
2023-03-23T03:51:04.330Z,13.30
2023-03-23T03:53:34.502Z,13.20
2023-03-23T03:56:06.406Z,13.30
2023-03-23T03:58:37.281Z,13.30
2023-03-23T04:01:07.741Z,13.40
2023-03-23T04:03:37.573Z,13.40
2023-03-23T04:06:11.550Z,13.40
2023-03-23T04:11:13.352Z,13.40
2023-03-23T04:14:03.661Z,13.50
2023-03-23T04:16:35.626Z,13.60
2023-03-23T04:19:07.461Z,13.70
2023-03-23T04:21:40.306Z,13.70
2023-03-23T04:24:23.459Z,13.80
2023-03-23T04:27:02.931Z,13.90
2023-03-23T04:29:35.018Z,14.00
2023-03-23T04:32:04.968Z,14.00
2023-03-23T04:34:36.400Z,14.00
2023-03-23T04:37:09.367Z,14.10
2023-03-23T04:39:41.098Z,14.00
2023-03-23T04:42:12.384Z,14.00
2023-03-23T04:44:43.365Z,14.10
2023-03-23T04:47:13.740Z,14.00
2023-03-23T04:49:43.737Z,14.00
2023-03-23T04:52:16.134Z,14.00
2023-03-23T04:54:46.446Z,14.00
2023-03-23T04:57:16.525Z,14.10
2023-03-23T04:59:46.987Z,14.00
2023-03-23T05:02:18.272Z,14.00
2023-03-23T05:04:49.698Z,14.10
2023-03-23T05:07:22.478Z,14.20
2023-03-23T05:09:53.572Z,14.10
2023-03-23T05:12:23.460Z,14.10
2023-03-23T05:14:53.553Z,14.10
2023-03-23T05:17:25.014Z,14.20
2023-03-23T05:19:57.624Z,14.10
2023-03-23T05:22:33.297Z,14.10
2023-03-23T05:25:03.833Z,14.10
2023-03-23T05:27:33.978Z,14.20
2023-03-23T05:30:03.808Z,14.10
2023-03-23T05:32:33.701Z,14.10
2023-03-23T05:35:04.719Z,14.00
2023-03-23T05:37:38.144Z,14.00
2023-03-23T05:40:09.891Z,14.10
2023-03-23T05:42:41.957Z,14.10
2023-03-23T05:45:13.187Z,14.10
2023-03-23T05:47:43.375Z,14.20
2023-03-23T05:50:14.725Z,14.30
2023-03-23T05:52:47.410Z,14.20
2023-03-23T05:55:17.313Z,14.30
2023-03-23T05:57:47.465Z,14.30
2023-03-23T06:00:20.613Z,14.30
2023-03-23T06:02:52.296Z,14.30
2023-03-23T06:05:22.157Z,14.30
2023-03-23T06:07:54.933Z,14.30
2023-03-23T06:10:25.526Z,14.40
2023-03-23T06:12:55.573Z,14.40
2023-03-23T06:15:26.045Z,14.40
2023-03-23T06:17:57.753Z,14.40
2023-03-23T06:20:27.638Z,14.30
2023-03-23T06:23:00.312Z,14.30
2023-03-23T06:25:30.303Z,14.30
2023-03-23T06:28:00.132Z,14.30
2023-03-23T06:30:31.455Z,14.30
2023-03-23T06:33:01.439Z,14.30
2023-03-23T06:35:31.531Z,14.30
2023-03-23T06:38:04.229Z,14.30
2023-03-23T06:40:34.103Z,14.30
2023-03-23T06:43:04.815Z,14.30
2023-03-23T06:45:35.112Z,14.30
2023-03-23T06:48:04.962Z,14.30
2023-03-23T06:50:35.023Z,14.40
2023-03-23T06:53:07.461Z,14.40
2023-03-23T06:55:37.986Z,14.50
2023-03-23T06:58:09.116Z,14.60
2023-03-23T07:00:39.881Z,14.70
2023-03-23T07:03:09.999Z,14.70
2023-03-23T07:05:40.276Z,14.70
2023-03-23T07:08:12.977Z,14.70
2023-03-23T07:10:43.101Z,14.60
2023-03-23T07:13:12.969Z,14.60
2023-03-23T07:15:43.900Z,14.60
2023-03-23T07:18:14.045Z,14.60
2023-03-23T07:20:44.060Z,14.60
2023-03-23T07:23:16.509Z,14.60
2023-03-23T07:25:47.525Z,14.50
2023-03-23T07:28:17.405Z,14.60
2023-03-23T07:30:47.687Z,14.50
2023-03-23T07:33:17.635Z,14.60
2023-03-23T07:35:48.444Z,14.60
2023-03-23T07:38:21.127Z,14.60
2023-03-23T07:40:51.152Z,14.60
2023-03-23T07:43:21.322Z,14.60
2023-03-23T07:45:51.145Z,14.70
2023-03-23T07:48:21.604Z,14.70
2023-03-23T07:50:51.827Z,14.80
2023-03-23T07:53:25.357Z,15.00
2023-03-23T07:55:55.178Z,15.20
2023-03-23T07:58:25.086Z,15.40
2023-03-23T08:00:58.694Z,15.60
2023-03-23T08:03:28.554Z,15.60
2023-03-23T08:06:01.628Z,15.50
2023-03-23T08:08:34.149Z,15.50
2023-03-23T08:11:04.165Z,15.50
2023-03-23T08:13:37.074Z,15.40
2023-03-23T08:16:10.353Z,15.50
2023-03-23T08:18:40.633Z,15.50
2023-03-23T08:21:11.665Z,15.40
2023-03-23T08:23:44.777Z,15.30
2023-03-23T08:26:16.317Z,15.30
2023-03-23T08:28:46.165Z,15.40
2023-03-23T08:31:18.189Z,15.40
2023-03-23T08:33:48.594Z,15.40
2023-03-23T08:36:19.188Z,15.40
2023-03-23T08:38:52.661Z,15.40
2023-03-23T08:41:23.021Z,15.30
2023-03-23T08:43:53.418Z,15.30
2023-03-23T08:46:24.202Z,15.30
2023-03-23T08:48:55.450Z,15.30
2023-03-23T08:51:26.399Z,15.20
2023-03-23T08:53:59.819Z,15.30
2023-03-23T08:56:29.944Z,15.10
2023-03-23T08:59:00.022Z,15.00
2023-03-23T09:01:30.458Z,15.00
2023-03-23T09:04:00.783Z,15.00
2023-03-23T09:06:30.791Z,15.00
2023-03-23T09:09:07.674Z,15.00
2023-03-23T09:11:37.980Z,14.90
2023-03-23T09:14:09.994Z,15.00
2023-03-23T09:16:39.829Z,15.00
2023-03-23T09:19:10.561Z,15.10
2023-03-23T09:21:40.429Z,15.00
2023-03-23T09:24:13.023Z,15.10
2023-03-23T09:26:42.889Z,15.10
2023-03-23T09:29:13.901Z,15.10
2023-03-23T09:31:44.251Z,15.20
2023-03-23T09:34:14.562Z,15.20
2023-03-23T09:36:44.522Z,15.30
2023-03-23T09:39:17.329Z,15.30
2023-03-23T09:42:06.253Z,15.20
2023-03-23T09:44:48.408Z,15.40
2023-03-23T09:47:27.884Z,15.30
2023-03-23T09:50:01.694Z,15.30
2023-03-23T09:52:38.722Z,15.40
2023-03-23T09:55:15.636Z,15.40
2023-03-23T09:57:53.593Z,15.50
2023-03-23T10:00:28.631Z,15.60
2023-03-23T10:03:04.627Z,15.60
2023-03-23T10:05:37.874Z,15.60
2023-03-23T10:08:16.504Z,15.50
2023-03-23T10:11:04.538Z,15.50
2023-03-23T10:14:18.549Z,15.60
2023-03-23T10:16:59.108Z,15.50
2023-03-23T10:19:36.665Z,15.60
2023-03-23T10:22:15.122Z,15.60
2023-03-23T10:24:52.113Z,15.50
2023-03-23T10:27:32.913Z,15.50
2023-03-23T10:30:07.259Z,15.60
2023-03-23T10:32:50.527Z,15.60
2023-03-23T10:35:24.801Z,16.00
2023-03-23T10:37:58.041Z,16.00
2023-03-23T10:40:31.798Z,15.70
2023-03-23T10:43:04.595Z,15.40
2023-03-23T10:45:35.889Z,15.60
2023-03-23T10:48:16.584Z,15.50
2023-03-23T10:50:50.110Z,15.50
2023-03-23T10:53:24.453Z,15.70
2023-03-23T10:55:54.814Z,15.60
2023-03-23T10:58:32.919Z,15.90
2023-03-23T11:01:04.004Z,15.90
2023-03-23T11:03:45.921Z,16.20
2023-03-23T11:06:23.476Z,16.20
2023-03-23T11:08:57.953Z,15.90
2023-03-23T11:11:31.050Z,16.00
2023-03-23T11:14:06.286Z,15.90
2023-03-23T11:16:38.322Z,15.70
2023-03-23T11:19:17.497Z,15.40
2023-03-23T11:21:51.491Z,15.50
2023-03-23T11:24:21.853Z,15.70
2023-03-23T11:26:58.717Z,15.80
2023-03-23T11:29:32.918Z,15.80
2023-03-23T11:32:09.670Z,15.70
2023-03-23T11:34:46.622Z,15.80
2023-03-23T11:37:29.513Z,16.00
2023-03-23T11:40:01.935Z,16.40
2023-03-23T11:42:41.594Z,16.60
2023-03-23T11:45:23.348Z,16.50
2023-03-23T11:48:03.013Z,16.70
2023-03-23T11:50:37.333Z,16.40
2023-03-23T11:53:17.581Z,16.20
2023-03-23T11:55:59.919Z,16.60
2023-03-23T11:58:33.809Z,16.70
2023-03-23T12:01:14.554Z,16.40
2023-03-23T12:04:01.329Z,16.10
2023-03-23T12:06:37.897Z,16.00
2023-03-23T12:09:19.847Z,16.00
2023-03-23T12:12:00.718Z,16.20
2023-03-23T12:14:38.372Z,15.90
2023-03-23T12:17:31.490Z,16.00
2023-03-23T12:20:18.821Z,16.10
2023-03-23T12:22:59.978Z,16.20
2023-03-23T12:26:01.860Z,16.00
2023-03-23T12:28:43.584Z,16.10
2023-03-23T12:31:19.489Z,15.80
2023-03-23T12:33:58.329Z,16.10
2023-03-23T12:36:40.954Z,16.00
2023-03-23T12:39:34.338Z,16.30
2023-03-23T12:42:13.183Z,16.30
2023-03-23T12:44:53.156Z,16.10
2023-03-23T12:47:34.074Z,16.40
2023-03-23T12:50:13.841Z,16.30
2023-03-23T12:52:52.525Z,16.60
2023-03-23T12:55:28.293Z,16.20
2023-03-23T12:58:03.133Z,16.20
2023-03-23T13:00:37.579Z,16.20
2023-03-23T13:03:13.981Z,16.30
2023-03-23T13:05:55.898Z,16.40
2023-03-23T13:08:30.617Z,16.60
2023-03-23T13:11:05.464Z,16.40
2023-03-23T13:13:55.340Z,16.60
2023-03-23T13:16:34.581Z,16.60
2023-03-23T13:19:11.957Z,16.50
2023-03-23T13:21:52.946Z,16.60
2023-03-23T13:24:28.482Z,16.50
2023-03-23T13:27:02.246Z,16.60
2023-03-23T13:29:33.600Z,16.70
2023-03-23T13:32:14.967Z,16.60
2023-03-23T13:34:48.096Z,16.60
2023-03-23T13:37:27.381Z,16.60
2023-03-23T13:40:00.038Z,16.50
2023-03-23T13:42:31.463Z,16.60
2023-03-23T13:45:23.751Z,16.60
2023-03-23T13:48:05.518Z,16.30
2023-03-23T13:50:46.979Z,16.40
2023-03-23T13:53:30.416Z,16.50
2023-03-23T13:56:20.890Z,16.50
2023-03-23T13:58:53.037Z,16.50
2023-03-23T14:01:36.773Z,16.20
2023-03-23T14:04:09.946Z,16.50
2023-03-23T14:06:40.631Z,16.20
2023-03-23T14:09:19.601Z,16.20
2023-03-23T14:11:53.486Z,16.30
2023-03-23T14:14:29.453Z,16.30
2023-03-23T14:17:10.586Z,16.40
2023-03-23T14:19:42.886Z,16.50
2023-03-23T14:22:22.728Z,16.50
2023-03-23T14:24:56.502Z,16.60
2023-03-23T14:27:28.039Z,17.00
2023-03-23T14:30:02.806Z,17.20
2023-03-23T14:32:34.767Z,17.10
2023-03-23T14:35:12.600Z,17.10
2023-03-23T14:37:42.723Z,17.20
2023-03-23T14:40:19.294Z,17.20
2023-03-23T14:42:50.423Z,17.40
2023-03-23T14:45:22.706Z,17.40
2023-03-23T14:47:55.559Z,17.40
2023-03-23T14:50:32.464Z,17.40
2023-03-23T14:53:06.258Z,17.40
2023-03-23T14:55:38.739Z,17.30
2023-03-23T14:58:13.175Z,17.30
2023-03-23T15:00:46.206Z,17.30
2023-03-23T15:03:19.335Z,17.40
2023-03-23T15:05:52.130Z,17.40
2023-03-23T15:08:30.489Z,17.30
2023-03-23T15:11:08.455Z,17.40
2023-03-23T15:13:40.165Z,17.50
2023-03-23T15:16:17.124Z,17.50
2023-03-23T15:18:54.557Z,17.60
2023-03-23T15:21:28.122Z,17.60
2023-03-23T15:23:58.218Z,17.40
2023-03-23T15:26:36.797Z,17.50
2023-03-23T15:29:20.192Z,17.50
2023-03-23T15:31:58.697Z,17.40
2023-03-23T15:34:33.023Z,17.40
2023-03-23T15:37:11.681Z,17.40
2023-03-23T15:39:45.173Z,17.40
2023-03-23T15:42:28.660Z,17.40
2023-03-23T15:45:01.565Z,17.30
2023-03-23T15:47:41.058Z,17.30
2023-03-23T15:50:16.714Z,17.30
2023-03-23T15:52:47.565Z,17.20
2023-03-23T15:55:28.305Z,17.20
2023-03-23T15:58:01.839Z,17.20
2023-03-23T16:00:32.530Z,17.20
2023-03-23T16:03:04.275Z,17.20
2023-03-23T16:05:34.665Z,17.20
2023-03-23T16:08:04.685Z,17.10
2023-03-23T16:10:34.549Z,17.20
2023-03-23T16:13:07.629Z,17.10
2023-03-23T16:15:37.607Z,17.10
2023-03-23T16:18:07.555Z,17.10
2023-03-23T16:20:37.497Z,17.10
2023-03-23T16:23:07.342Z,17.00
2023-03-23T16:25:39.567Z,17.10
2023-03-23T16:28:14.401Z,17.00
2023-03-23T16:30:46.172Z,17.00
2023-03-23T16:33:16.333Z,17.00
2023-03-23T16:35:48.284Z,16.90
2023-03-23T16:38:19.533Z,16.80
2023-03-23T16:40:50.177Z,16.70
2023-03-23T16:43:23.371Z,16.60
2023-03-23T16:45:53.401Z,16.60
2023-03-23T16:48:23.289Z,16.60
2023-03-23T16:50:54.929Z,16.60
2023-03-23T16:53:25.412Z,16.60
2023-03-23T16:55:57.899Z,16.50
2023-03-23T16:58:32.980Z,16.50
2023-03-23T17:01:04.369Z,16.50
2023-03-23T17:03:37.102Z,16.20
2023-03-23T17:06:07.483Z,16.00
2023-03-23T17:08:38.100Z,15.90
2023-03-23T17:11:08.421Z,15.80
2023-03-23T17:13:42.130Z,15.70
2023-03-23T17:16:12.649Z,15.60
2023-03-23T17:18:42.583Z,15.60
2023-03-23T17:21:12.575Z,15.60
2023-03-23T17:23:42.417Z,15.60
2023-03-23T17:26:12.231Z,15.50
2023-03-23T17:28:44.751Z,15.40
2023-03-23T17:31:14.649Z,15.30
2023-03-23T17:33:44.660Z,15.30
2023-03-23T17:36:14.734Z,15.30
2023-03-23T17:38:44.684Z,15.20
2023-03-23T17:41:15.153Z,15.20
2023-03-23T17:43:47.600Z,15.20
2023-03-23T17:46:18.316Z,15.20
2023-03-23T17:48:48.197Z,15.30
2023-03-23T17:51:18.119Z,15.40
2023-03-23T17:53:48.761Z,15.60
2023-03-23T17:56:18.714Z,15.60
2023-03-23T17:58:51.248Z,15.70
2023-03-23T18:01:21.334Z,15.80
2023-03-23T18:03:51.397Z,15.80
2023-03-23T18:06:21.956Z,15.80
2023-03-23T18:08:51.837Z,15.80
2023-03-23T18:11:21.809Z,15.80
2023-03-23T18:13:54.269Z,15.80
2023-03-23T18:16:24.163Z,15.80
2023-03-23T18:18:54.338Z,15.70
2023-03-23T18:21:24.134Z,15.70
2023-03-23T18:23:59.342Z,15.80
2023-03-23T18:26:31.791Z,15.70
2023-03-23T18:29:04.343Z,15.80
2023-03-23T18:31:40.085Z,15.80
2023-03-23T18:34:10.390Z,15.80
2023-03-23T18:36:40.415Z,15.80
2023-03-23T18:39:10.789Z,15.70
2023-03-23T18:41:41.034Z,15.70
2023-03-23T18:44:13.485Z,15.80
2023-03-23T18:46:43.406Z,15.70
2023-03-23T18:49:13.418Z,15.70
2023-03-23T18:51:43.289Z,15.70
2023-03-23T18:54:13.447Z,15.70
2023-03-23T18:56:43.402Z,15.70
2023-03-23T18:59:15.981Z,15.70
2023-03-23T19:01:45.859Z,15.70
2023-03-23T19:04:15.825Z,15.70
2023-03-23T19:06:45.652Z,15.70
2023-03-23T19:09:15.526Z,15.70
2023-03-23T19:11:45.839Z,15.70
2023-03-23T19:14:19.535Z,15.70
2023-03-23T19:16:49.466Z,15.70
2023-03-23T19:19:19.320Z,15.60
2023-03-23T19:21:49.229Z,15.70
2023-03-23T19:24:20.088Z,15.60
2023-03-23T19:26:50.434Z,15.60
2023-03-23T19:29:27.089Z,15.60
2023-03-23T19:31:57.920Z,15.60
2023-03-23T19:34:30.744Z,15.60
2023-03-23T19:37:05.771Z,15.60
2023-03-23T19:39:41.829Z,15.60
2023-03-23T19:42:16.835Z,15.60
2023-03-23T19:44:50.438Z,15.60
2023-03-23T19:47:20.738Z,15.60
2023-03-23T19:49:51.504Z,15.60
2023-03-23T19:52:21.552Z,15.50
2023-03-23T19:54:51.628Z,15.40
2023-03-23T19:57:22.418Z,15.40
2023-03-23T19:59:54.896Z,15.40
2023-03-23T20:02:24.824Z,15.40
2023-03-23T20:04:57.513Z,15.40
2023-03-23T20:07:27.882Z,15.30
2023-03-23T20:09:57.880Z,15.30
2023-03-23T20:12:27.945Z,15.30
2023-03-23T20:15:00.481Z,15.20
2023-03-23T20:17:30.660Z,15.20
2023-03-23T20:20:01.694Z,15.20
2023-03-23T20:22:31.587Z,15.20
2023-03-23T20:25:01.578Z,15.20
2023-03-23T20:27:32.396Z,15.10
2023-03-23T20:30:06.178Z,15.20
2023-03-23T20:32:37.439Z,15.10
2023-03-23T20:35:10.866Z,15.10
2023-03-23T20:37:42.289Z,15.10
2023-03-23T20:40:14.672Z,15.10
2023-03-23T20:42:44.939Z,15.10
2023-03-23T20:45:18.645Z,15.10
2023-03-23T20:47:48.589Z,15.00
2023-03-23T20:50:18.681Z,15.00
2023-03-23T20:52:48.620Z,15.10
2023-03-23T20:55:18.779Z,15.10
2023-03-23T20:57:48.596Z,15.00
2023-03-23T21:00:21.605Z,15.00
2023-03-23T21:02:54.285Z,14.90
2023-03-23T21:05:24.901Z,14.90
2023-03-23T21:07:55.825Z,14.90
2023-03-23T21:10:27.789Z,14.90
2023-03-23T21:12:58.012Z,14.90
2023-03-23T21:15:30.568Z,14.80
2023-03-23T21:18:00.424Z,14.80
2023-03-23T21:20:30.758Z,14.80
2023-03-23T21:23:01.606Z,14.70
2023-03-23T21:25:34.258Z,14.70
2023-03-23T21:28:05.551Z,14.70
2023-03-23T21:30:37.958Z,14.60
2023-03-23T21:33:08.492Z,14.60
2023-03-23T21:35:38.526Z,14.60
2023-03-23T21:38:14.220Z,14.50
2023-03-23T21:40:46.627Z,14.50
2023-03-23T21:43:17.074Z,14.50
2023-03-23T21:45:49.587Z,14.50
2023-03-23T21:48:22.288Z,14.50
2023-03-23T21:50:52.427Z,14.40
2023-03-23T21:53:25.433Z,14.40
2023-03-23T21:55:55.657Z,14.40
2023-03-23T21:58:27.606Z,14.40
2023-03-23T22:01:01.199Z,14.40
2023-03-23T22:03:33.011Z,14.30
2023-03-23T22:06:11.583Z,14.40
2023-03-23T22:08:43.043Z,14.30
2023-03-23T22:11:17.871Z,14.20
2023-03-23T22:13:49.050Z,14.20
2023-03-23T22:16:22.458Z,14.20
2023-03-23T22:18:54.268Z,14.10
2023-03-23T22:21:26.072Z,14.10
2023-03-23T22:23:57.615Z,14.00
2023-03-23T22:26:29.098Z,14.10
2023-03-23T22:28:59.909Z,14.00
2023-03-23T22:31:35.406Z,14.00
2023-03-23T22:34:05.768Z,14.00
2023-03-23T22:36:36.367Z,14.00
2023-03-23T22:39:06.525Z,14.00
2023-03-23T22:41:38.581Z,14.00
2023-03-23T22:44:11.679Z,14.00
2023-03-23T22:46:44.781Z,14.10
2023-03-23T22:49:14.921Z,14.20
2023-03-23T22:51:45.017Z,14.30
2023-03-23T22:54:15.007Z,14.20
2023-03-23T22:56:45.136Z,14.30
2023-03-23T22:59:15.124Z,14.30
2023-03-23T23:01:47.697Z,14.30
2023-03-23T23:04:17.828Z,14.20
2023-03-23T23:06:47.973Z,14.10
2023-03-23T23:09:19.228Z,14.10
2023-03-23T23:11:49.233Z,14.00
2023-03-23T23:14:19.171Z,14.00
2023-03-23T23:16:51.907Z,13.90
2023-03-23T23:19:21.896Z,13.90
2023-03-23T23:21:51.866Z,13.60
2023-03-23T23:24:21.799Z,13.70
2023-03-23T23:26:51.846Z,13.70
2023-03-23T23:29:22.247Z,13.70
2023-03-23T23:31:54.852Z,13.70
2023-03-23T23:34:25.397Z,13.70
2023-03-23T23:36:55.801Z,13.70
2023-03-23T23:39:26.672Z,13.60
2023-03-23T23:41:59.732Z,13.60
2023-03-23T23:44:29.766Z,13.60
2023-03-23T23:47:02.701Z,13.70
2023-03-23T23:49:34.373Z,13.70
2023-03-23T23:52:04.353Z,13.80
2023-03-23T23:54:37.496Z,13.90
2023-03-23T23:57:09.601Z,13.90
2023-03-23T23:59:39.559Z,13.90
